createdAt,value
2017-06-28T00:00:34.076Z,100227
2017-06-28T00:03:02.561Z,100222
2017-06-28T00:05:31.030Z,100225
2017-06-28T00:07:59.525Z,100212
2017-06-28T00:10:28.147Z,100207
2017-06-28T00:12:56.652Z,100217
2017-06-28T00:15:25.191Z,100218
2017-06-28T00:17:53.690Z,100219
2017-06-28T00:20:22.245Z,100209
2017-06-28T00:22:50.722Z,100198
2017-06-28T00:25:19.234Z,100194
2017-06-28T00:27:47.730Z,100188
2017-06-28T00:30:16.490Z,100186
2017-06-28T00:32:44.974Z,100194
2017-06-28T00:35:13.559Z,100196
2017-06-28T00:37:42.082Z,100173
2017-06-28T00:40:10.601Z,100175
2017-06-28T00:42:39.279Z,100174
2017-06-28T00:45:08.514Z,100166
2017-06-28T00:47:37.271Z,100161
2017-06-28T00:50:05.846Z,100167
2017-06-28T00:52:34.367Z,100158
2017-06-28T00:55:02.838Z,100159
2017-06-28T00:57:31.322Z,100163
2017-06-28T01:00:00.010Z,100149
2017-06-28T01:02:28.494Z,100159
2017-06-28T01:04:57.078Z,100144
2017-06-28T01:07:25.601Z,100135
2017-06-28T01:09:54.186Z,100130
2017-06-28T01:12:22.700Z,100132
2017-06-28T01:14:51.981Z,100138
2017-06-28T01:17:20.491Z,100134
2017-06-28T01:19:49.749Z,100129
2017-06-28T01:22:18.222Z,100128
2017-06-28T01:24:46.719Z,100119
2017-06-28T01:27:15.204Z,100114
2017-06-28T01:29:43.721Z,100117
2017-06-28T01:32:13.046Z,100110
2017-06-28T01:34:41.513Z,100107
2017-06-28T01:37:10.138Z,100103
2017-06-28T01:39:38.828Z,100104
2017-06-28T01:42:07.313Z,100106
2017-06-28T01:44:35.788Z,100107
2017-06-28T01:47:04.451Z,100097
2017-06-28T01:49:32.946Z,100094
2017-06-28T01:52:01.855Z,100090
2017-06-28T01:54:30.372Z,100088
2017-06-28T01:56:58.840Z,100087
2017-06-28T01:59:27.280Z,100077
2017-06-28T02:01:55.740Z,100079
2017-06-28T02:04:24.223Z,100079
2017-06-28T02:06:52.690Z,100073
2017-06-28T02:09:21.917Z,100066
2017-06-28T02:11:50.399Z,100058
2017-06-28T02:14:19.032Z,100054
2017-06-28T02:16:47.878Z,100050
2017-06-28T02:19:16.603Z,100046
2017-06-28T02:21:45.053Z,100044
2017-06-28T02:24:13.513Z,100045
2017-06-28T02:26:41.996Z,100047
2017-06-28T02:29:11.217Z,100046
2017-06-28T02:31:39.801Z,100045
2017-06-28T02:34:08.314Z,100048
2017-06-28T02:36:36.844Z,100044
2017-06-28T02:39:05.448Z,100034
2017-06-28T02:41:34.035Z,100032
2017-06-28T02:44:02.557Z,100039
2017-06-28T02:46:31.061Z,100026
2017-06-28T02:48:59.562Z,100042
2017-06-28T02:51:28.042Z,100028
2017-06-28T02:53:57.189Z,100022
2017-06-28T02:56:25.682Z,100028
2017-06-28T02:58:54.166Z,100027
2017-06-28T03:01:22.637Z,100020
2017-06-28T03:03:51.195Z,100008
2017-06-28T03:06:19.837Z,100004
2017-06-28T03:08:48.334Z,100002
2017-06-28T03:11:16.855Z,99992
2017-06-28T03:13:45.340Z,99980
2017-06-28T03:16:13.897Z,99976
2017-06-28T03:18:42.394Z,99972
2017-06-28T03:21:10.897Z,99977
2017-06-28T03:23:39.394Z,99966
2017-06-28T03:26:07.993Z,99958
2017-06-28T03:28:36.530Z,99958
2017-06-28T03:31:04.969Z,99949
2017-06-28T03:33:33.765Z,99952
2017-06-28T03:36:02.387Z,99961
2017-06-28T03:38:30.860Z,99952
2017-06-28T03:40:59.313Z,99947
2017-06-28T03:43:27.793Z,99935
2017-06-28T03:45:57.165Z,99945
2017-06-28T03:48:25.602Z,99934
2017-06-28T03:50:54.122Z,99942
2017-06-28T03:53:22.716Z,99934
2017-06-28T03:55:51.198Z,99940
2017-06-28T03:58:19.829Z,99938
2017-06-28T04:00:48.537Z,99940
2017-06-28T04:03:17.033Z,99938
2017-06-28T04:05:45.656Z,99944
2017-06-28T04:08:14.115Z,99948
2017-06-28T04:10:43.401Z,99947
2017-06-28T04:13:12.104Z,99947
2017-06-28T04:15:40.707Z,99940
2017-06-28T04:18:09.359Z,99942
2017-06-28T04:20:38.128Z,99944
2017-06-28T04:23:06.617Z,99944
2017-06-28T04:25:35.096Z,99939
2017-06-28T04:28:03.600Z,99944
2017-06-28T04:30:32.078Z,99950
2017-06-28T04:33:00.755Z,99944
2017-06-28T04:35:29.273Z,99938
2017-06-28T04:37:57.741Z,99948
2017-06-28T04:40:26.177Z,99942
2017-06-28T04:42:55.633Z,99944
2017-06-28T04:45:24.116Z,99943
2017-06-28T04:47:52.578Z,99936
2017-06-28T04:50:21.072Z,99938
2017-06-28T04:52:49.558Z,99943
2017-06-28T04:55:18.029Z,99946
2017-06-28T04:57:46.580Z,99925
2017-06-28T05:00:15.097Z,99922
2017-06-28T05:02:43.827Z,99921
2017-06-28T05:05:12.284Z,99920
2017-06-28T05:07:40.761Z,99918
2017-06-28T05:10:09.220Z,99922
2017-06-28T05:12:37.683Z,99924
2017-06-28T05:15:06.393Z,99927
2017-06-28T05:17:35.022Z,99932
2017-06-28T05:20:03.668Z,99928
2017-06-28T05:22:32.122Z,99938
2017-06-28T05:25:00.608Z,99926
2017-06-28T05:27:29.791Z,99938
2017-06-28T05:29:58.983Z,99927
2017-06-28T05:32:28.163Z,99916
2017-06-28T05:34:56.745Z,99927
2017-06-28T05:37:25.215Z,99916
2017-06-28T05:39:53.684Z,99907
2017-06-28T05:42:22.153Z,99905
2017-06-28T05:44:50.658Z,99909
2017-06-28T05:47:19.425Z,99901
2017-06-28T05:49:49.250Z,99890
2017-06-28T05:52:17.857Z,99877
2017-06-28T05:54:46.329Z,99874
2017-06-28T05:57:14.829Z,99882
2017-06-28T05:59:43.395Z,99881
2017-06-28T06:02:12.108Z,99875
2017-06-28T06:04:40.627Z,99862
2017-06-28T06:07:09.112Z,99873
2017-06-28T06:09:38.161Z,99842
2017-06-28T06:12:06.644Z,99839
2017-06-28T06:14:35.121Z,99850
2017-06-28T06:17:03.584Z,99846
2017-06-28T06:19:32.196Z,99847
2017-06-28T06:22:00.629Z,99842
2017-06-28T06:24:30.408Z,99825
2017-06-28T06:26:58.913Z,99824
2017-06-28T06:29:27.426Z,99819
2017-06-28T06:31:56.217Z,99829
2017-06-28T06:34:24.729Z,99826
2017-06-28T06:36:53.489Z,99825
2017-06-28T06:39:21.991Z,99818
2017-06-28T06:41:50.452Z,99818
2017-06-28T06:44:18.957Z,99808
2017-06-28T06:46:47.401Z,99798
2017-06-28T06:49:15.852Z,99798
2017-06-28T06:51:44.336Z,99810
2017-06-28T06:54:13.717Z,99811
2017-06-28T06:56:46.158Z,99811
2017-06-28T06:59:14.973Z,99811
2017-06-28T07:01:43.454Z,99803
2017-06-28T07:04:12.132Z,99817
2017-06-28T07:06:40.762Z,99807
2017-06-28T07:09:10.024Z,99807
2017-06-28T07:11:38.500Z,99798
2017-06-28T07:14:07.143Z,99791
2017-06-28T07:16:35.605Z,99805
2017-06-28T07:19:04.365Z,99790
2017-06-28T07:21:33.000Z,99792
2017-06-28T07:24:02.293Z,99780
2017-06-28T07:26:31.536Z,99792
2017-06-28T07:29:00.044Z,99793
2017-06-28T07:31:28.533Z,99788
2017-06-28T07:33:57.098Z,99769
2017-06-28T07:36:26.048Z,99780
2017-06-28T07:38:54.901Z,99766
2017-06-28T07:41:24.766Z,99763
2017-06-28T07:43:53.217Z,99772
2017-06-28T07:46:21.693Z,99757
2017-06-28T07:48:50.772Z,99761
2017-06-28T07:51:19.248Z,99778
2017-06-28T07:53:47.814Z,99756
2017-06-28T07:56:18.108Z,99758
2017-06-28T07:58:46.560Z,99759
2017-06-28T08:01:15.053Z,99752
2017-06-28T08:03:43.561Z,99752
2017-06-28T08:06:12.013Z,99753
2017-06-28T08:08:40.675Z,99740
2017-06-28T08:11:09.143Z,99762
2017-06-28T08:13:37.652Z,99747
2017-06-28T08:16:06.125Z,99750
2017-06-28T08:18:35.419Z,99746
2017-06-28T08:21:03.992Z,99752
2017-06-28T08:23:32.489Z,99744
2017-06-28T08:26:00.976Z,99739
2017-06-28T08:28:29.473Z,99747
2017-06-28T08:30:58.081Z,99746
2017-06-28T08:33:26.616Z,99726
2017-06-28T08:35:55.241Z,99738
2017-06-28T08:38:23.880Z,99739
2017-06-28T08:40:52.376Z,99722
2017-06-28T08:43:20.445Z,99723
2017-06-28T08:45:48.965Z,99730
2017-06-28T08:48:17.436Z,99726
2017-06-28T08:50:46.060Z,99722
2017-06-28T08:53:14.601Z,99727
2017-06-28T08:55:43.089Z,99714
2017-06-28T08:58:12.472Z,99701
2017-06-28T09:00:40.945Z,99715
2017-06-28T09:03:09.597Z,99704
2017-06-28T09:05:38.049Z,99693
2017-06-28T09:08:07.411Z,99694
2017-06-28T09:10:35.991Z,99690
2017-06-28T09:13:04.553Z,99694
2017-06-28T09:15:33.044Z,99679
2017-06-28T09:18:01.497Z,99673
2017-06-28T09:20:30.975Z,99658
2017-06-28T09:22:59.448Z,99678
2017-06-28T09:25:28.116Z,99677
2017-06-28T09:27:56.594Z,99674
2017-06-28T09:30:25.196Z,99665
2017-06-28T09:32:53.779Z,99676
2017-06-28T09:35:22.281Z,99676
2017-06-28T09:37:50.765Z,99668
2017-06-28T09:40:19.518Z,99679
2017-06-28T09:42:47.983Z,99690
2017-06-28T09:45:16.450Z,99676
2017-06-28T09:47:44.938Z,99676
2017-06-28T09:50:13.523Z,99680
2017-06-28T09:52:41.976Z,99674
2017-06-28T09:55:11.330Z,99677
2017-06-28T09:57:40.029Z,99671
2017-06-28T10:00:08.525Z,99670
2017-06-28T10:02:37.002Z,99672
2017-06-28T10:05:05.504Z,99678
2017-06-28T10:07:34.820Z,99676
2017-06-28T10:10:09.322Z,99659
2017-06-28T10:12:38.876Z,99665
2017-06-28T10:15:07.634Z,99655
2017-06-28T10:17:36.872Z,99674
2017-06-28T10:20:05.365Z,99647
2017-06-28T10:22:33.844Z,99641
2017-06-28T10:25:02.415Z,99641
2017-06-28T10:27:31.098Z,99645
2017-06-28T10:42:49.434Z,99625
2017-06-28T10:45:17.928Z,99617
2017-06-28T10:47:46.937Z,99615
2017-06-28T10:50:15.817Z,99609
2017-06-28T10:52:44.490Z,99616
2017-06-28T10:55:13.074Z,99600
2017-06-28T10:57:41.909Z,99602
2017-06-28T11:00:10.441Z,99599
2017-06-28T11:02:38.419Z,99595
2017-06-28T11:05:06.284Z,99587
2017-06-28T11:07:34.766Z,99589
2017-06-28T11:10:07.957Z,99567
2017-06-28T11:12:40.409Z,99570
2017-06-28T11:15:08.881Z,99572
2017-06-28T11:17:38.141Z,99563
2017-06-28T11:20:06.605Z,99563
2017-06-28T11:22:35.145Z,99565
2017-06-28T11:25:03.668Z,99547
2017-06-28T11:27:31.533Z,99552
2017-06-28T11:30:00.349Z,99551
2017-06-28T11:32:28.346Z,99536
2017-06-28T11:34:56.205Z,99523
2017-06-28T11:37:24.044Z,99532
2017-06-28T11:39:51.870Z,99527
2017-06-28T11:42:20.481Z,99517
2017-06-28T11:44:48.908Z,99517
2017-06-28T11:47:18.891Z,99510
2017-06-28T11:49:46.785Z,99512
2017-06-28T11:52:14.749Z,99511
2017-06-28T11:54:42.825Z,99519
2017-06-28T11:57:10.681Z,99511
2017-06-28T11:59:39.192Z,99508
2017-06-28T12:02:07.748Z,99505
2017-06-28T12:04:36.232Z,99499
2017-06-28T12:07:04.713Z,99490
2017-06-28T12:09:32.648Z,99502
2017-06-28T12:12:01.104Z,99495
2017-06-28T12:14:30.521Z,99492
2017-06-28T12:16:59.536Z,99484
2017-06-28T12:19:27.406Z,99481
2017-06-28T12:21:55.562Z,99472
2017-06-28T12:24:23.443Z,99482
2017-06-28T12:26:51.557Z,99481
2017-06-28T12:29:19.432Z,99469
2017-06-28T12:31:47.285Z,99467
2017-06-28T12:34:15.746Z,99488
2017-06-28T12:36:44.226Z,99464
2017-06-28T12:39:12.749Z,99468
2017-06-28T12:41:41.241Z,99455
2017-06-28T12:44:09.692Z,99461
2017-06-28T12:46:38.283Z,99455
2017-06-28T12:49:06.770Z,99468
2017-06-28T12:51:35.319Z,99456
2017-06-28T12:54:03.176Z,99457
2017-06-28T12:56:31.649Z,99459
2017-06-28T12:59:00.274Z,99451
2017-06-28T13:01:28.797Z,99441
2017-06-28T13:03:57.313Z,99441
2017-06-28T13:06:25.814Z,99441
2017-06-28T13:08:54.382Z,99436
2017-06-28T13:11:22.903Z,99439
2017-06-28T13:13:52.077Z,99434
2017-06-28T13:16:20.573Z,99426
2017-06-28T13:18:49.197Z,99420
2017-06-28T13:21:18.654Z,99407
2017-06-28T13:23:47.151Z,99413
2017-06-28T13:26:15.819Z,99422
2017-06-28T13:28:44.292Z,99415
2017-06-28T13:31:12.873Z,99407
2017-06-28T13:33:41.381Z,99407
2017-06-28T13:36:09.901Z,99402
2017-06-28T13:38:38.903Z,99397
2017-06-28T13:41:08.138Z,99398
2017-06-28T13:43:36.796Z,99394
2017-06-28T13:46:06.176Z,99393
2017-06-28T13:48:34.738Z,99390
2017-06-28T13:51:03.646Z,99377
2017-06-28T13:53:32.100Z,99379
2017-06-28T13:56:00.666Z,99377
2017-06-28T13:58:29.165Z,99380
2017-06-28T14:00:57.664Z,99361
2017-06-28T14:03:26.817Z,99355
2017-06-28T14:05:55.388Z,99359
2017-06-28T14:08:23.973Z,99354
2017-06-28T14:10:52.487Z,99352
2017-06-28T14:13:21.406Z,99346
2017-06-28T14:15:49.964Z,99329
2017-06-28T14:18:18.505Z,99345
2017-06-28T14:20:47.124Z,99339
2017-06-28T14:23:15.672Z,99341
2017-06-28T14:25:44.159Z,99331
2017-06-28T14:28:13.386Z,99328
2017-06-28T14:30:41.925Z,99332
2017-06-28T14:33:10.420Z,99331
2017-06-28T14:35:39.662Z,99339
2017-06-28T14:38:08.166Z,99337
2017-06-28T14:40:37.231Z,99338
2017-06-28T14:43:06.025Z,99346
2017-06-28T14:45:35.534Z,99344
2017-06-28T14:48:04.434Z,99333
2017-06-28T14:50:32.951Z,99337
2017-06-28T14:53:01.721Z,99337
2017-06-28T14:55:30.218Z,99332
2017-06-28T14:57:58.745Z,99325
2017-06-28T15:00:27.346Z,99322
2017-06-28T15:02:56.034Z,99318
2017-06-28T15:05:24.574Z,99318
2017-06-28T15:07:53.237Z,99316
2017-06-28T15:10:22.053Z,99305
2017-06-28T15:12:52.168Z,99296
2017-06-28T15:15:20.801Z,99299
2017-06-28T15:17:49.402Z,99305
2017-06-28T15:20:18.072Z,99308
2017-06-28T15:22:46.906Z,99311
2017-06-28T15:25:15.686Z,99312
2017-06-28T15:27:44.354Z,99310
2017-06-28T15:30:34.082Z,99293
2017-06-28T15:33:02.700Z,99293
2017-06-28T15:35:31.588Z,99277
2017-06-28T15:38:08.147Z,99282
2017-06-28T15:40:37.320Z,99274
2017-06-28T15:43:07.224Z,99270
2017-06-28T15:45:36.409Z,99276
2017-06-28T15:48:05.275Z,99267
2017-06-28T15:50:33.989Z,99269
2017-06-28T15:53:12.904Z,99262
2017-06-28T15:55:50.791Z,99252
2017-06-28T15:58:20.130Z,99215
2017-06-28T16:00:49.675Z,99219
2017-06-28T16:03:18.313Z,99216
2017-06-28T16:05:46.924Z,99213
2017-06-28T16:08:15.558Z,99200
2017-06-28T16:10:44.157Z,99208
2017-06-28T16:13:12.848Z,99204
2017-06-28T16:15:41.417Z,99191
2017-06-28T16:18:10.286Z,99182
2017-06-28T16:20:38.915Z,99190
2017-06-28T16:23:07.678Z,99191
2017-06-28T16:25:36.213Z,99195
2017-06-28T16:28:05.518Z,99187
2017-06-28T16:30:35.382Z,99191
2017-06-28T16:33:05.337Z,99193
2017-06-28T16:35:34.956Z,99191
2017-06-28T16:38:03.661Z,99184
2017-06-28T16:40:33.183Z,99183
2017-06-28T16:43:06.087Z,99187
2017-06-28T16:45:35.623Z,99188
2017-06-28T16:48:04.505Z,99182
2017-06-28T16:50:33.360Z,99182
2017-06-28T16:53:01.941Z,99183
2017-06-28T16:55:30.751Z,99181
2017-06-28T16:57:59.560Z,99183
2017-06-28T17:00:28.362Z,99183
2017-06-28T17:02:57.357Z,99187
2017-06-28T17:05:28.152Z,99187
2017-06-28T17:07:57.166Z,99184
2017-06-28T17:10:26.680Z,99180
2017-06-28T17:12:55.655Z,99188
2017-06-28T17:15:24.654Z,99189
2017-06-28T17:17:53.550Z,99183
2017-06-28T17:20:23.508Z,99184
2017-06-28T17:22:52.876Z,99188
2017-06-28T17:25:22.238Z,99184
2017-06-28T17:27:51.141Z,99187
2017-06-28T17:30:20.466Z,99185
2017-06-28T17:32:50.140Z,99189
2017-06-28T17:35:23.739Z,99184
2017-06-28T17:37:52.906Z,99192
2017-06-28T17:40:22.298Z,99196
2017-06-28T17:42:52.271Z,99190
2017-06-28T17:45:21.305Z,99185
2017-06-28T17:47:50.312Z,99187
2017-06-28T17:50:19.233Z,99187
2017-06-28T17:52:48.091Z,99189
2017-06-28T17:55:16.661Z,99199
2017-06-28T17:57:46.998Z,99182
2017-06-28T18:00:16.997Z,99188
2017-06-28T18:02:46.772Z,99189
2017-06-28T18:05:16.551Z,99198
2017-06-28T18:07:46.233Z,99180
2017-06-28T18:12:53.231Z,99184
2017-06-28T18:15:23.050Z,99188
2017-06-28T18:17:52.549Z,99186
2017-06-28T18:20:21.709Z,99187
2017-06-28T18:22:50.671Z,99191
2017-06-28T18:25:19.879Z,99182
2017-06-28T18:27:48.849Z,99170
2017-06-28T18:30:17.724Z,99171
2017-06-28T18:32:46.824Z,99165
2017-06-28T18:35:15.685Z,99166
2017-06-28T18:37:44.807Z,99157
2017-06-28T18:40:13.548Z,99149
2017-06-28T18:42:43.313Z,99151
2017-06-28T18:45:12.402Z,99157
2017-06-28T18:47:42.118Z,99148
2017-06-28T18:50:12.136Z,99156
2017-06-28T18:52:42.063Z,99141
2017-06-28T18:55:10.940Z,99154
2017-06-28T18:57:39.560Z,99139
2017-06-28T19:00:08.233Z,99145
2017-06-28T19:02:36.767Z,99133
2017-06-28T19:05:05.299Z,99143
2017-06-28T19:07:33.851Z,99142
2017-06-28T19:10:02.780Z,99147
2017-06-28T19:12:31.546Z,99143
2017-06-28T19:15:00.219Z,99139
2017-06-28T19:17:28.762Z,99148
2017-06-28T19:19:57.295Z,99135
2017-06-28T19:22:25.888Z,99138
2017-06-28T19:24:55.010Z,99138
2017-06-28T19:27:23.768Z,99146
2017-06-28T19:29:52.541Z,99140
2017-06-28T19:32:21.077Z,99134
2017-06-28T19:34:49.629Z,99133
2017-06-28T19:37:18.172Z,99141
2017-06-28T19:39:47.716Z,99136
2017-06-28T19:42:16.489Z,99142
2017-06-28T19:44:45.098Z,99146
2017-06-28T19:47:13.640Z,99146
2017-06-28T19:49:42.183Z,99151
2017-06-28T19:52:10.850Z,99150
2017-06-28T19:54:39.636Z,99152
2017-06-28T19:57:08.680Z,99164
2017-06-28T19:59:37.347Z,99169
2017-06-28T20:02:06.109Z,99178
2017-06-28T20:04:34.631Z,99174
2017-06-28T20:07:03.376Z,99182
2017-06-28T20:09:32.067Z,99185
2017-06-28T20:12:02.729Z,99180
2017-06-28T20:14:31.279Z,99181
2017-06-28T20:17:00.070Z,99179
2017-06-28T20:19:28.671Z,99181
2017-06-28T20:21:57.230Z,99184
2017-06-28T20:24:25.955Z,99180
2017-06-28T20:26:54.649Z,99179
2017-06-28T20:29:23.332Z,99176
2017-06-28T20:31:51.913Z,99170
2017-06-28T20:34:20.543Z,99170
2017-06-28T20:36:49.853Z,99173
2017-06-28T20:39:18.381Z,99169
2017-06-28T20:41:47.404Z,99175
2017-06-28T20:44:16.074Z,99167
2017-06-28T20:46:44.853Z,99176
2017-06-28T20:49:13.835Z,99165
2017-06-28T20:51:42.403Z,99163
2017-06-28T20:54:10.987Z,99165
2017-06-28T20:56:39.553Z,99157
2017-06-28T20:59:08.250Z,99158
2017-06-28T21:01:37.915Z,99162
2017-06-28T21:04:06.767Z,99161
2017-06-28T21:06:35.408Z,99148
2017-06-28T21:09:04.451Z,99159
2017-06-28T21:11:33.038Z,99156
2017-06-28T21:14:01.613Z,99152
2017-06-28T21:16:30.134Z,99158
2017-06-28T21:18:58.732Z,99158
2017-06-28T21:21:27.469Z,99145
2017-06-28T21:23:56.319Z,99147
2017-06-28T21:26:25.616Z,99155
2017-06-28T21:28:54.250Z,99134
2017-06-28T21:31:23.133Z,99156
2017-06-28T21:33:51.667Z,99153
2017-06-28T21:36:20.642Z,99147
2017-06-28T21:38:49.294Z,99140
2017-06-28T21:41:17.886Z,99134
2017-06-28T21:43:46.372Z,99138
2017-06-28T21:46:14.974Z,99135
2017-06-28T21:48:43.743Z,99131
2017-06-28T21:51:12.431Z,99141
2017-06-28T21:53:41.545Z,99148
2017-06-28T21:56:12.680Z,99146
2017-06-28T21:58:44.906Z,99147
2017-06-28T22:01:13.602Z,99145
2017-06-28T22:03:42.969Z,99152
2017-06-28T22:06:11.493Z,99138
2017-06-28T22:08:39.974Z,99133
2017-06-28T22:11:08.497Z,99131
2017-06-28T22:13:37.731Z,99133
2017-06-28T22:16:06.631Z,99130
2017-06-28T22:18:48.737Z,99132
2017-06-28T22:21:17.691Z,99122
2017-06-28T22:23:46.491Z,99131
2017-06-28T22:26:16.166Z,99135
2017-06-28T22:28:44.751Z,99134
2017-06-28T22:31:13.378Z,99127
2017-06-28T22:33:41.867Z,99125
2017-06-28T22:36:10.324Z,99131
2017-06-28T22:38:38.821Z,99121
2017-06-28T22:41:07.389Z,99112
2017-06-28T22:43:36.054Z,99123
2017-06-28T22:46:04.668Z,99116
2017-06-28T22:48:33.121Z,99108
2017-06-28T22:51:02.143Z,99110
2017-06-28T22:53:30.706Z,99102
2017-06-28T22:55:59.370Z,99097
2017-06-28T22:58:43.357Z,99105
2017-06-28T23:01:12.123Z,99110
2017-06-28T23:03:41.041Z,99103
2017-06-28T23:06:09.628Z,99101
2017-06-28T23:08:38.620Z,99100
2017-06-28T23:11:07.117Z,99104
2017-06-28T23:13:35.607Z,99112
2017-06-28T23:16:04.245Z,99111
2017-06-28T23:18:32.710Z,99115
2017-06-28T23:21:01.241Z,99116
2017-06-28T23:23:29.769Z,99114
2017-06-28T23:25:58.313Z,99114
2017-06-28T23:28:26.808Z,99118
2017-06-28T23:30:55.289Z,99124
2017-06-28T23:33:23.845Z,99119
2017-06-28T23:35:52.313Z,99121
2017-06-28T23:38:20.842Z,99123
2017-06-28T23:40:49.329Z,99123
2017-06-28T23:43:17.825Z,99126
2017-06-28T23:45:46.438Z,99106
2017-06-28T23:48:15.046Z,99101
2017-06-28T23:50:43.639Z,99102
2017-06-28T23:53:12.119Z,99096
2017-06-28T23:55:40.605Z,99090
2017-06-28T23:58:09.199Z,99098
